createdAt,value
2019-05-28T00:00:01.684Z,35.05
2019-05-28T00:02:23.379Z,24.30
2019-05-28T00:04:56.058Z,24.15
2019-05-28T00:07:28.539Z,16.32
2019-05-28T00:10:01.112Z,14.53
2019-05-28T00:12:34.717Z,14.80
2019-05-28T00:15:09.055Z,13.00
2019-05-28T00:17:41.740Z,13.33
2019-05-28T00:20:14.499Z,13.90
2019-05-28T00:22:50.458Z,14.20
2019-05-28T00:25:25.848Z,14.95
2019-05-28T00:27:57.032Z,14.40
2019-05-28T00:30:29.817Z,12.45
2019-05-28T00:33:02.296Z,12.80
2019-05-28T00:35:34.764Z,12.60
2019-05-28T00:38:07.446Z,12.53
2019-05-28T00:40:39.820Z,11.03
2019-05-28T00:43:12.497Z,12.10
2019-05-28T00:45:45.278Z,11.50
2019-05-28T00:48:17.748Z,12.68
2019-05-28T00:50:50.433Z,13.13
2019-05-28T00:53:23.008Z,13.03
2019-05-28T00:55:55.684Z,13.72
2019-05-28T00:58:27.970Z,14.53
2019-05-28T01:01:00.327Z,15.30
2019-05-28T01:03:33.009Z,18.50
2019-05-28T01:06:05.691Z,32.98
2019-05-28T01:08:38.059Z,39.90
2019-05-28T01:11:10.690Z,36.38
2019-05-28T01:13:43.010Z,42.35
2019-05-28T01:16:15.588Z,39.80
2019-05-28T01:18:48.056Z,32.70
2019-05-28T01:21:20.602Z,34.75
2019-05-28T01:23:53.110Z,36.35
2019-05-28T01:26:25.793Z,38.42
2019-05-28T01:28:58.466Z,35.95
2019-05-28T01:31:31.355Z,36.13
2019-05-28T01:34:04.030Z,39.23
2019-05-28T01:39:08.887Z,36.33
2019-05-28T01:41:41.560Z,37.60
2019-05-28T01:44:13.655Z,37.93
2019-05-28T01:46:45.993Z,37.80
2019-05-28T01:49:18.159Z,36.28
2019-05-28T01:51:50.331Z,36.83
2019-05-28T01:54:23.110Z,37.23
2019-05-28T01:56:55.698Z,38.45
2019-05-28T01:59:28.164Z,36.95
2019-05-28T02:02:00.633Z,36.60
2019-05-28T02:04:33.520Z,37.85
2019-05-28T02:07:06.096Z,38.00
2019-05-28T02:09:38.876Z,36.77
2019-05-28T02:12:11.456Z,37.60
2019-05-28T02:14:43.729Z,35.17
2019-05-28T02:19:48.877Z,37.58
2019-05-28T02:22:21.669Z,36.35
2019-05-28T02:24:54.236Z,35.17
2019-05-28T02:27:26.675Z,35.38
2019-05-28T02:29:59.496Z,37.13
2019-05-28T02:32:32.484Z,36.38
2019-05-28T02:35:06.408Z,33.53
2019-05-28T02:37:39.071Z,34.75
2019-05-28T02:40:11.747Z,36.43
2019-05-28T02:42:44.328Z,34.73
2019-05-28T02:45:16.910Z,32.48
2019-05-28T02:47:49.181Z,33.05
2019-05-28T02:50:27.278Z,40.38
2019-05-28T02:53:00.162Z,35.23
2019-05-28T02:55:32.431Z,33.08
2019-05-28T02:58:05.515Z,34.75
2019-05-28T03:00:37.688Z,35.38
2019-05-28T03:03:10.570Z,30.93
2019-05-28T03:05:43.355Z,30.48
2019-05-28T03:08:15.827Z,29.70
2019-05-28T03:11:04.545Z,28.40
2019-05-28T03:13:22.415Z,28.42
2019-05-28T03:15:56.543Z,26.87
2019-05-28T03:18:29.468Z,27.15
2019-05-28T03:21:01.687Z,26.75
2019-05-28T03:23:35.663Z,26.50
2019-05-28T03:26:08.205Z,25.12
2019-05-28T03:28:41.053Z,26.53
2019-05-28T03:31:14.262Z,29.32
2019-05-28T03:33:46.737Z,33.42
2019-05-28T03:36:21.102Z,30.12
2019-05-28T03:38:54.337Z,26.25
2019-05-28T03:41:26.505Z,23.80
2019-05-28T03:43:59.279Z,22.35
2019-05-28T03:46:31.540Z,22.77
2019-05-28T03:49:04.425Z,23.25
2019-05-28T03:51:36.904Z,23.10
2019-05-28T03:54:09.281Z,22.05
2019-05-28T03:56:41.647Z,21.25
2019-05-28T03:59:14.433Z,21.80
2019-05-28T04:01:46.710Z,19.87
2019-05-28T04:04:19.384Z,19.30
2019-05-28T04:06:51.763Z,19.50
2019-05-28T04:09:24.227Z,19.25
2019-05-28T04:11:56.418Z,17.75
2019-05-28T04:14:28.615Z,18.57
2019-05-28T04:17:00.902Z,18.20
2019-05-28T04:19:33.147Z,18.80
2019-05-28T04:22:05.306Z,16.73
2019-05-28T04:24:38.047Z,15.63
2019-05-28T04:27:10.450Z,16.60
2019-05-28T04:29:44.959Z,16.60
2019-05-28T04:32:17.212Z,17.10
2019-05-28T04:34:49.581Z,18.75
2019-05-28T04:37:21.960Z,16.42
2019-05-28T04:39:54.594Z,17.90
2019-05-28T04:42:27.110Z,18.55
2019-05-28T04:45:00.320Z,17.70
2019-05-28T04:47:33.737Z,16.85
2019-05-28T04:50:07.130Z,18.65
2019-05-28T04:52:40.709Z,18.57
2019-05-28T04:55:13.077Z,22.27
2019-05-28T04:57:45.855Z,20.37
2019-05-28T05:00:18.639Z,19.35
2019-05-28T05:02:59.460Z,18.25
2019-05-28T05:05:25.929Z,17.95
2019-05-28T05:07:58.546Z,17.30
2019-05-28T05:10:31.261Z,17.73
2019-05-28T05:13:05.414Z,16.45
2019-05-28T05:15:38.294Z,16.07
2019-05-28T05:18:10.769Z,12.50
2019-05-28T05:23:15.552Z,14.20
2019-05-28T05:25:49.570Z,14.23
2019-05-28T05:28:21.902Z,13.08
2019-05-28T05:30:54.306Z,9.95
2019-05-28T05:33:26.733Z,10.90
2019-05-28T05:36:01.053Z,9.30
2019-05-28T05:38:33.541Z,18.77
2019-05-28T05:41:06.321Z,10.18
2019-05-28T05:43:38.837Z,9.13
2019-05-28T05:46:11.265Z,9.40
2019-05-28T05:48:43.746Z,9.88
2019-05-28T05:51:16.368Z,8.65
2019-05-28T05:53:48.587Z,11.38
2019-05-28T05:56:21.170Z,9.40
2019-05-28T05:58:53.529Z,10.00
2019-05-28T06:01:26.021Z,10.00
2019-05-28T06:06:30.072Z,15.88
2019-05-28T06:09:02.623Z,17.10
2019-05-28T06:11:35.212Z,15.00
2019-05-28T06:14:07.584Z,10.53
2019-05-28T06:16:40.538Z,10.72
2019-05-28T06:19:12.830Z,10.43
2019-05-28T06:21:46.762Z,12.75
2019-05-28T06:24:19.249Z,10.25
2019-05-28T06:26:51.673Z,8.95
2019-05-28T06:31:58.465Z,6.72
2019-05-28T06:34:31.148Z,7.95
2019-05-28T06:37:04.546Z,6.30
2019-05-28T06:39:37.213Z,6.97
2019-05-28T06:42:09.596Z,6.55
2019-05-28T06:47:13.921Z,4.78
2019-05-28T06:49:46.189Z,4.17
2019-05-28T06:52:18.371Z,4.83
2019-05-28T06:54:51.051Z,4.33
2019-05-28T06:57:23.577Z,4.30
2019-05-28T06:59:55.791Z,4.87
2019-05-28T07:02:28.166Z,3.98
2019-05-28T07:07:32.187Z,3.55
2019-05-28T07:10:08.140Z,3.85
2019-05-28T07:12:40.313Z,4.62
2019-05-28T07:15:12.981Z,4.25
2019-05-28T07:17:45.460Z,4.20
2019-05-28T07:20:18.141Z,3.55
2019-05-28T07:25:22.179Z,6.00
2019-05-28T07:28:09.551Z,4.95
2019-05-28T07:30:28.750Z,5.40
2019-05-28T07:33:01.339Z,3.45
2019-05-28T07:40:38.138Z,2.70
2019-05-28T07:43:10.617Z,3.72
2019-05-28T07:45:42.738Z,6.80
2019-05-28T07:50:46.543Z,6.42
2019-05-28T07:53:18.821Z,6.15
2019-05-28T07:55:51.343Z,5.22
2019-05-28T07:58:23.934Z,5.45
2019-05-28T08:00:56.395Z,5.35
2019-05-28T08:03:28.837Z,4.70
2019-05-28T08:06:01.144Z,6.00
2019-05-28T08:08:33.950Z,5.20
2019-05-28T08:11:06.194Z,6.08
2019-05-28T08:13:41.137Z,3.80
2019-05-28T08:16:18.552Z,4.03
2019-05-28T08:18:47.417Z,3.22
2019-05-28T08:23:51.132Z,3.70
2019-05-28T08:28:54.686Z,4.72
2019-05-28T08:31:27.219Z,2.92
2019-05-28T08:33:59.299Z,3.87
2019-05-28T08:36:32.067Z,3.75
2019-05-28T08:39:06.626Z,3.00
2019-05-28T08:41:38.756Z,3.30
2019-05-28T08:46:42.583Z,3.62
2019-05-28T08:49:15.052Z,3.08
2019-05-28T08:51:47.323Z,2.70
2019-05-28T08:54:19.805Z,2.47
2019-05-28T08:56:52.177Z,2.55
2019-05-28T08:59:24.680Z,2.65
2019-05-28T09:01:56.889Z,2.87
2019-05-28T09:04:29.499Z,3.02
2019-05-28T09:07:01.755Z,2.58
2019-05-28T09:12:05.582Z,2.70
2019-05-28T09:17:10.767Z,3.08
2019-05-28T09:19:43.346Z,2.90
2019-05-28T09:22:25.088Z,3.35
2019-05-28T09:24:50.203Z,3.35
2019-05-28T09:27:22.785Z,3.60
2019-05-28T09:29:55.582Z,3.35
2019-05-28T09:32:27.868Z,4.25
2019-05-28T09:35:02.439Z,3.52
2019-05-28T09:37:34.864Z,3.33
2019-05-28T09:42:38.900Z,2.98
2019-05-28T09:45:22.513Z,3.00
2019-05-28T09:47:46.897Z,2.52
2019-05-28T09:50:30.647Z,2.90
2019-05-28T09:52:55.380Z,4.40
2019-05-28T09:55:27.696Z,2.70
2019-05-28T09:57:59.861Z,2.80
2019-05-28T10:00:33.757Z,3.17
2019-05-28T10:03:06.166Z,3.25
2019-05-28T10:08:09.756Z,4.17
2019-05-28T10:13:14.190Z,4.33
2019-05-28T10:15:47.149Z,3.83
2019-05-28T10:18:19.244Z,3.95
2019-05-28T10:20:51.610Z,4.07
2019-05-28T10:23:24.812Z,4.53
2019-05-28T10:25:57.484Z,4.15
2019-05-28T10:28:29.789Z,4.33
2019-05-28T10:31:01.926Z,5.37
2019-05-28T10:33:34.297Z,4.83
2019-05-28T10:36:07.027Z,4.53
2019-05-28T10:38:39.247Z,4.33
2019-05-28T10:41:14.945Z,5.17
2019-05-28T10:43:47.517Z,6.08
2019-05-28T10:46:19.859Z,4.33
2019-05-28T10:48:52.532Z,3.77
2019-05-28T10:53:57.392Z,3.95
2019-05-28T10:56:30.101Z,4.80
2019-05-28T10:59:02.227Z,4.47
2019-05-28T11:01:34.895Z,4.53
2019-05-28T11:04:07.064Z,5.00
2019-05-28T11:06:51.528Z,4.62
2019-05-28T11:09:14.062Z,5.12
2019-05-28T11:11:46.934Z,5.33
2019-05-28T11:14:19.519Z,5.60
2019-05-28T11:16:52.411Z,5.92
2019-05-28T11:19:24.883Z,6.10
2019-05-28T11:21:57.459Z,5.50
2019-05-28T11:24:29.951Z,4.73
2019-05-28T11:27:02.818Z,5.50
2019-05-28T11:29:35.183Z,6.40
2019-05-28T11:32:08.338Z,7.63
2019-05-28T11:34:40.650Z,5.78
2019-05-28T11:37:13.520Z,5.80
2019-05-28T11:39:45.800Z,5.67
2019-05-28T11:42:19.148Z,5.92
2019-05-28T11:44:51.767Z,5.40
2019-05-28T11:47:24.359Z,6.40
2019-05-28T11:49:56.937Z,6.42
2019-05-28T11:52:29.412Z,5.47
2019-05-28T11:55:01.681Z,5.87
2019-05-28T11:57:35.375Z,6.20
2019-05-28T12:00:08.107Z,6.03
2019-05-28T12:02:40.759Z,5.92
2019-05-28T12:05:14.944Z,5.72
2019-05-28T12:07:51.354Z,6.12
2019-05-28T12:10:21.937Z,5.67
2019-05-28T12:12:54.415Z,5.20
2019-05-28T12:15:26.997Z,5.37
2019-05-28T12:17:59.868Z,4.90
2019-05-28T12:20:33.303Z,4.62
2019-05-28T12:23:11.528Z,4.55
2019-05-28T12:25:40.546Z,4.80
2019-05-28T12:28:16.135Z,4.60
2019-05-28T12:30:49.013Z,4.08
2019-05-28T12:33:21.496Z,4.47
2019-05-28T12:35:53.977Z,4.37
2019-05-28T12:38:26.477Z,4.47
2019-05-28T12:40:59.020Z,5.20
2019-05-28T12:43:32.665Z,4.83
2019-05-28T12:46:05.096Z,3.58
2019-05-28T12:48:37.779Z,4.53
2019-05-28T12:51:10.043Z,4.63
2019-05-28T12:53:50.372Z,7.20
2019-05-28T12:56:17.451Z,6.20
2019-05-28T12:58:50.223Z,5.28
2019-05-28T13:01:24.080Z,3.95
2019-05-28T13:03:56.805Z,3.72
2019-05-28T13:09:01.912Z,3.50
2019-05-28T13:11:35.520Z,3.98
2019-05-28T13:14:08.066Z,3.13
2019-05-28T13:16:40.330Z,3.35
2019-05-28T13:19:13.252Z,4.40
2019-05-28T13:21:45.766Z,4.22
2019-05-28T13:24:18.260Z,3.70
2019-05-28T13:26:50.922Z,3.12
2019-05-28T13:29:23.604Z,3.50
2019-05-28T13:31:56.086Z,4.03
2019-05-28T13:34:28.684Z,3.72
2019-05-28T13:37:01.265Z,3.80
2019-05-28T13:39:34.046Z,5.17
2019-05-28T13:42:07.526Z,5.42
2019-05-28T13:44:40.992Z,4.22
2019-05-28T13:47:32.330Z,4.35
2019-05-28T13:49:48.233Z,3.83
2019-05-28T13:54:53.364Z,3.98
2019-05-28T13:57:26.214Z,4.00
2019-05-28T13:59:59.333Z,4.03
2019-05-28T14:02:32.633Z,4.15
2019-05-28T14:05:07.194Z,5.17
2019-05-28T14:10:12.618Z,5.60
2019-05-28T14:12:45.457Z,5.25
2019-05-28T14:15:18.252Z,4.22
2019-05-28T14:17:50.754Z,4.62
2019-05-28T14:20:23.865Z,4.08
2019-05-28T14:22:56.340Z,3.85
2019-05-28T14:25:28.799Z,4.90
2019-05-28T14:28:01.742Z,5.22
2019-05-28T14:30:34.257Z,5.17
2019-05-28T14:33:06.935Z,5.00
2019-05-28T14:35:39.594Z,5.05
2019-05-28T14:38:12.095Z,4.70
2019-05-28T14:40:44.604Z,5.00
2019-05-28T14:43:17.262Z,5.00
2019-05-28T14:45:49.789Z,5.40
2019-05-28T14:48:22.362Z,4.67
2019-05-28T14:50:54.677Z,5.47
2019-05-28T14:53:26.950Z,5.87
2019-05-28T14:55:59.632Z,4.20
2019-05-28T14:58:32.296Z,5.10
2019-05-28T15:01:05.106Z,4.27
2019-05-28T15:03:37.575Z,4.40
2019-05-28T15:06:10.026Z,4.20
2019-05-28T15:08:42.293Z,4.47
2019-05-28T15:11:14.899Z,4.50
2019-05-28T15:13:47.614Z,4.20
2019-05-28T15:16:20.286Z,4.28
2019-05-28T15:18:52.608Z,4.80
2019-05-28T15:21:25.079Z,6.92
2019-05-28T15:23:57.506Z,3.85
2019-05-28T15:26:30.130Z,4.67
2019-05-28T15:29:02.892Z,5.03
2019-05-28T15:31:36.213Z,5.45
2019-05-28T15:34:09.558Z,4.55
2019-05-28T15:36:42.351Z,7.75
2019-05-28T15:39:15.394Z,4.90
2019-05-28T15:41:48.202Z,3.93
2019-05-28T15:44:20.439Z,4.53
2019-05-28T15:46:53.305Z,4.63
2019-05-28T15:49:25.788Z,4.37
2019-05-28T15:52:07.245Z,4.05
2019-05-28T15:54:32.795Z,3.90
2019-05-28T15:57:05.569Z,5.15
2019-05-28T15:59:38.153Z,4.92
2019-05-28T16:02:11.043Z,4.55
2019-05-28T16:04:43.887Z,4.35
2019-05-28T16:07:16.582Z,4.58
2019-05-28T16:09:56.035Z,4.35
2019-05-28T16:12:24.152Z,3.62
2019-05-28T16:14:56.669Z,3.90
2019-05-28T16:17:29.716Z,3.37
2019-05-28T16:20:02.154Z,4.33
2019-05-28T16:22:34.512Z,4.37
2019-05-28T16:25:07.321Z,3.77
2019-05-28T16:27:40.267Z,4.40
2019-05-28T16:31:34.790Z,3.67
2019-05-28T16:34:07.453Z,3.90
2019-05-28T16:36:39.830Z,3.90
2019-05-28T16:39:12.829Z,4.37
2019-05-28T16:41:45.506Z,4.35
2019-05-28T16:44:18.189Z,4.20
2019-05-28T16:47:14.281Z,5.17
2019-05-28T16:49:25.932Z,4.28
2019-05-28T16:52:00.873Z,6.15
2019-05-28T16:54:33.874Z,4.45
2019-05-28T16:57:06.379Z,6.73
2019-05-28T16:59:39.393Z,6.33
2019-05-28T17:02:12.795Z,6.97
2019-05-28T17:04:45.772Z,7.70
2019-05-28T17:07:18.492Z,6.63
2019-05-28T17:09:51.109Z,5.22
2019-05-28T17:12:23.602Z,6.13
2019-05-28T17:14:56.920Z,6.12
2019-05-28T17:17:31.264Z,5.97
2019-05-28T17:20:09.815Z,6.00
2019-05-28T17:22:45.555Z,6.03
2019-05-28T17:25:20.317Z,6.17
2019-05-28T17:27:55.107Z,5.62
2019-05-28T17:30:30.170Z,6.28
2019-05-28T17:33:22.071Z,5.50
2019-05-28T17:35:57.843Z,5.50
2019-05-28T17:38:32.376Z,5.95
2019-05-28T17:41:10.358Z,11.80
2019-05-28T17:43:43.760Z,4.55
2019-05-28T17:46:24.221Z,5.37
2019-05-28T17:49:16.072Z,4.60
2019-05-28T17:51:59.440Z,5.05
2019-05-28T17:54:33.906Z,5.00
2019-05-28T17:57:07.401Z,5.10
2019-05-28T17:59:41.227Z,4.60
2019-05-28T18:02:19.843Z,4.15
2019-05-28T18:04:54.252Z,4.87
2019-05-28T18:07:30.681Z,4.30
2019-05-28T18:10:10.136Z,4.75
2019-05-28T18:12:45.721Z,4.75
2019-05-28T18:15:20.289Z,4.97
2019-05-28T18:17:55.218Z,5.40
2019-05-28T18:20:29.718Z,5.50
2019-05-28T18:23:07.410Z,5.62
2019-05-28T18:25:42.254Z,5.40
2019-05-28T18:28:18.353Z,5.62
2019-05-28T18:30:57.042Z,6.55
2019-05-28T18:33:28.336Z,6.83
2019-05-28T18:36:02.186Z,6.87
2019-05-28T18:38:43.350Z,6.17
2019-05-28T18:41:21.212Z,6.05
2019-05-28T18:43:44.272Z,5.75
2019-05-28T18:46:21.203Z,5.20
2019-05-28T18:48:54.570Z,5.78
2019-05-28T18:54:01.526Z,5.25
2019-05-28T18:56:36.067Z,5.55
2019-05-28T18:59:09.486Z,5.45
2019-05-28T19:01:41.924Z,5.50
2019-05-28T19:04:16.249Z,5.33
2019-05-28T19:06:50.713Z,5.10
2019-05-28T19:09:25.198Z,4.80
2019-05-28T19:11:58.167Z,5.00
2019-05-28T19:14:30.861Z,4.72
2019-05-28T19:17:03.345Z,4.10
2019-05-28T19:19:36.220Z,4.62
2019-05-28T19:22:09.387Z,4.37
2019-05-28T19:24:42.390Z,4.10
2019-05-28T19:27:14.991Z,3.72
2019-05-28T19:29:50.530Z,4.20
2019-05-28T19:32:22.038Z,4.42
2019-05-28T19:34:54.642Z,3.67
2019-05-28T19:37:27.285Z,3.60
2019-05-28T19:39:59.809Z,4.00
2019-05-28T19:42:32.426Z,3.70
2019-05-28T19:45:06.984Z,3.60
2019-05-28T19:47:40.691Z,4.97
2019-05-28T19:50:13.483Z,4.15
2019-05-28T19:52:45.955Z,3.75
2019-05-28T19:55:18.645Z,3.55
2019-05-28T19:57:51.003Z,3.70
2019-05-28T20:00:23.581Z,3.60
2019-05-28T20:02:56.060Z,4.50
2019-05-28T20:05:28.745Z,3.30
2019-05-28T20:08:01.114Z,3.60
2019-05-28T20:10:33.594Z,3.22
2019-05-28T20:13:05.957Z,3.80
2019-05-28T20:15:38.219Z,3.80
2019-05-28T20:18:25.827Z,3.60
2019-05-28T20:20:45.516Z,3.80
2019-05-28T20:23:18.026Z,3.27
2019-05-28T20:25:51.837Z,3.72
2019-05-28T20:28:24.491Z,3.85
2019-05-28T20:30:57.259Z,3.45
2019-05-28T20:33:29.545Z,3.75
2019-05-28T20:36:03.716Z,4.47
2019-05-28T20:38:36.110Z,4.60
2019-05-28T20:41:08.407Z,5.12
2019-05-28T20:43:40.972Z,5.15
2019-05-28T20:46:13.330Z,6.58
2019-05-28T20:48:45.715Z,6.12
2019-05-28T20:51:22.051Z,6.40
2019-05-28T20:53:52.407Z,6.53
2019-05-28T20:56:25.093Z,6.05
2019-05-28T20:59:00.087Z,6.20
2019-05-28T21:01:31.900Z,5.55
2019-05-28T21:04:03.939Z,5.65
2019-05-28T21:06:36.417Z,5.20
2019-05-28T21:09:08.990Z,4.92
2019-05-28T21:11:41.157Z,4.90
2019-05-28T21:14:13.526Z,5.53
2019-05-28T21:16:46.005Z,7.62
2019-05-28T21:19:18.173Z,4.85
2019-05-28T21:21:51.416Z,5.00
2019-05-28T21:24:23.633Z,4.60
2019-05-28T21:26:56.285Z,4.17
2019-05-28T21:29:28.474Z,4.40
2019-05-28T21:32:00.884Z,4.40
2019-05-28T21:34:33.218Z,3.52
2019-05-28T21:37:06.028Z,4.17
2019-05-28T21:39:38.267Z,3.83
2019-05-28T21:42:10.825Z,4.15
2019-05-28T21:44:43.022Z,4.90
2019-05-28T21:47:15.523Z,4.80
2019-05-28T21:49:47.982Z,4.80
2019-05-28T21:52:20.238Z,4.90
2019-05-28T21:54:52.997Z,4.83
2019-05-28T21:57:25.595Z,5.00
2019-05-28T21:59:58.004Z,4.80
2019-05-28T22:02:30.133Z,5.40
2019-05-28T22:05:06.905Z,5.45
2019-05-28T22:07:37.140Z,5.53
2019-05-28T22:10:09.297Z,5.47
2019-05-28T22:12:41.573Z,5.58
2019-05-28T22:15:13.734Z,5.90
2019-05-28T22:17:46.263Z,6.37
2019-05-28T22:20:18.607Z,6.67
2019-05-28T22:22:51.151Z,7.17
2019-05-28T22:25:23.655Z,7.45
2019-05-28T22:27:56.546Z,8.18
2019-05-28T22:30:29.206Z,14.20
2019-05-28T22:33:02.297Z,21.35
2019-05-28T22:35:34.447Z,15.57
2019-05-28T22:38:08.052Z,11.97
2019-05-28T22:40:40.120Z,11.43
2019-05-28T22:43:13.003Z,10.38
2019-05-28T22:45:45.420Z,10.25
2019-05-28T22:48:18.336Z,10.20
2019-05-28T22:50:51.141Z,11.08
2019-05-28T22:53:23.513Z,12.13
2019-05-28T22:55:56.100Z,11.60
2019-05-28T22:58:28.976Z,11.15
2019-05-28T23:01:02.477Z,11.60
2019-05-28T23:03:34.844Z,12.23
2019-05-28T23:06:07.342Z,11.78
2019-05-28T23:08:39.749Z,12.33
2019-05-28T23:11:11.858Z,12.33
2019-05-28T23:13:47.069Z,11.90
2019-05-28T23:16:18.655Z,12.33
2019-05-28T23:18:51.226Z,12.55
2019-05-28T23:21:23.395Z,13.72
2019-05-28T23:23:55.991Z,12.55
2019-05-28T23:26:28.148Z,14.20
2019-05-28T23:29:01.612Z,13.78
2019-05-28T23:31:34.034Z,14.20
2019-05-28T23:34:06.797Z,14.63
2019-05-28T23:36:39.267Z,15.15
2019-05-28T23:39:11.843Z,16.45
2019-05-28T23:41:44.419Z,16.42
2019-05-28T23:44:16.996Z,14.85
2019-05-28T23:46:49.413Z,15.72
2019-05-28T23:49:21.948Z,16.15
2019-05-28T23:51:54.127Z,17.12
2019-05-28T23:54:26.596Z,15.23
2019-05-28T23:56:58.755Z,13.98
2019-05-28T23:59:32.974Z,13.65
